createdAt,value
2019-04-10T00:12:56.177Z,8.23
2019-04-10T00:28:01.178Z,8.23
2019-04-10T00:43:03.856Z,8.29
2019-04-10T00:58:06.413Z,8.16
2019-04-10T01:13:10.334Z,8.53
2019-04-10T01:28:14.494Z,8.50
2019-04-10T01:43:19.882Z,8.63
2019-04-10T01:58:23.294Z,8.57
2019-04-10T02:13:26.276Z,8.31
2019-04-10T02:28:29.196Z,7.86
2019-04-10T02:43:33.778Z,7.79
2019-04-10T02:58:36.469Z,7.73
2019-04-10T03:13:39.063Z,7.78
2019-04-10T03:28:41.645Z,7.88
2019-04-10T03:43:45.755Z,8.03
2019-04-10T03:58:49.445Z,8.22
2019-04-10T04:13:52.293Z,8.17
2019-04-10T04:28:55.715Z,8.02
2019-04-10T04:43:58.568Z,8.14
2019-04-10T04:59:01.477Z,8.05
2019-04-10T05:14:04.882Z,8.33
2019-04-10T05:29:08.975Z,8.63
2019-04-10T05:44:13.411Z,8.97
2019-04-10T05:59:17.478Z,9.31
2019-04-10T06:14:20.054Z,9.44
2019-04-10T06:29:23.267Z,9.53
2019-04-10T06:44:28.005Z,9.66
2019-04-10T06:59:32.456Z,9.44
2019-04-10T07:14:36.960Z,9.73
2019-04-10T07:29:40.721Z,9.71
2019-04-10T07:44:43.922Z,9.83
2019-04-10T07:59:47.900Z,9.66
2019-04-10T08:14:52.061Z,10.21
2019-04-10T08:29:54.853Z,11.44
2019-04-10T08:44:58.957Z,13.63
2019-04-10T09:00:02.672Z,13.31
2019-04-10T09:15:06.330Z,13.99
2019-04-10T09:30:09.322Z,16.20
2019-04-10T09:45:13.535Z,16.54
2019-04-10T10:00:16.711Z,17.31
2019-04-10T10:15:19.562Z,18.09
2019-04-10T10:30:23.049Z,17.43
2019-04-10T10:45:29.060Z,18.78
2019-04-10T11:00:31.850Z,17.83
2019-04-10T11:15:37.705Z,17.96
2019-04-10T11:30:41.154Z,15.54
2019-04-10T11:45:51.262Z,13.94
2019-04-10T12:00:52.412Z,14.09
2019-04-10T12:15:54.689Z,14.64
2019-04-10T12:30:57.533Z,15.44
2019-04-10T12:46:02.382Z,15.01
2019-04-10T13:01:06.776Z,13.83
2019-04-10T13:16:09.881Z,14.53
2019-04-10T13:31:12.980Z,14.15
2019-04-10T13:46:16.934Z,14.02
2019-04-10T14:01:27.148Z,13.90
2019-04-10T14:16:30.906Z,13.26
2019-04-10T14:31:37.378Z,13.17
2019-04-10T14:46:40.781Z,12.99
2019-04-10T15:01:44.331Z,13.22
2019-04-10T15:16:56.470Z,13.90
2019-04-10T15:31:52.954Z,13.86
2019-04-10T15:47:08.695Z,13.52
2019-04-10T16:02:01.891Z,13.35
2019-04-10T16:32:39.752Z,13.24
2019-04-10T16:47:44.030Z,12.79
2019-04-10T17:02:49.056Z,12.11
2019-04-10T17:17:52.966Z,11.34
2019-04-10T17:32:56.372Z,11.38
2019-04-10T17:47:59.233Z,10.67
2019-04-10T18:03:03.312Z,10.29
2019-04-10T18:18:07.316Z,10.29
2019-04-10T18:33:12.072Z,10.08
2019-04-10T18:48:14.814Z,9.55
2019-04-10T19:03:46.226Z,9.29
2019-04-10T19:18:43.818Z,8.89
2019-04-10T19:33:47.004Z,8.70
2019-04-10T19:48:51.620Z,8.41
2019-04-10T20:03:54.456Z,8.22
2019-04-10T20:18:57.160Z,8.12
2019-04-10T20:34:00.747Z,8.37
2019-04-10T20:49:04.793Z,8.26
2019-04-10T21:04:07.728Z,8.41
2019-04-10T21:19:11.128Z,8.48
2019-04-10T21:34:19.629Z,7.80
2019-04-10T21:49:24.061Z,7.44
2019-04-10T22:04:27.358Z,7.07
2019-04-10T22:19:30.601Z,7.41
2019-04-10T22:34:34.295Z,7.00
2019-04-10T22:49:37.131Z,6.96
2019-04-10T23:04:42.751Z,6.82
2019-04-10T23:19:46.530Z,6.78
2019-04-10T23:34:50.692Z,6.65
2019-04-10T23:49:54.111Z,6.95
